sensor_id;sensor_type;location;lat;lon;timestamp;temperature;humidity
9941;DHT22;5009;50.656;7.188;2022-09-12T00:02:20;14.70;99.90
9941;DHT22;5009;50.656;7.188;2022-09-12T00:04:46;14.70;99.90
9941;DHT22;5009;50.656;7.188;2022-09-12T00:07:12;14.70;99.90
9941;DHT22;5009;50.656;7.188;2022-09-12T00:09:37;14.80;99.90
9941;DHT22;5009;50.656;7.188;2022-09-12T00:12:03;14.80;99.90
9941;DHT22;5009;50.656;7.188;2022-09-12T00:14:29;14.70;99.90
9941;DHT22;5009;50.656;7.188;2022-09-12T00:16:57;14.80;99.90
9941;DHT22;5009;50.656;7.188;2022-09-12T00:19:24;14.80;99.90
9941;DHT22;5009;50.656;7.188;2022-09-12T00:21:49;14.80;99.90
9941;DHT22;5009;50.656;7.188;2022-09-12T00:24:15;14.70;99.90
9941;DHT22;5009;50.656;7.188;2022-09-12T00:26:40;14.70;99.90
9941;DHT22;5009;50.656;7.188;2022-09-12T00:29:06;14.70;99.90
9941;DHT22;5009;50.656;7.188;2022-09-12T00:31:31;14.80;99.90
9941;DHT22;5009;50.656;7.188;2022-09-12T00:33:58;14.70;99.90
9941;DHT22;5009;50.656;7.188;2022-09-12T00:36:25;14.70;99.90
9941;DHT22;5009;50.656;7.188;2022-09-12T00:38:52;14.60;99.90
9941;DHT22;5009;50.656;7.188;2022-09-12T00:41:33;14.70;99.90
9941;DHT22;5009;50.656;7.188;2022-09-12T00:44:02;14.70;99.90
9941;DHT22;5009;50.656;7.188;2022-09-12T00:51:37;14.60;99.90
9941;DHT22;5009;50.656;7.188;2022-09-12T00:54:10;14.60;99.90
9941;DHT22;5009;50.656;7.188;2022-09-12T00:56:39;14.50;99.90
9941;DHT22;5009;50.656;7.188;2022-09-12T00:59:11;14.50;99.90
9941;DHT22;5009;50.656;7.188;2022-09-12T01:01:39;14.60;99.90
9941;DHT22;5009;50.656;7.188;2022-09-12T01:04:07;14.60;99.90
9941;DHT22;5009;50.656;7.188;2022-09-12T01:06:39;14.60;99.90
9941;DHT22;5009;50.656;7.188;2022-09-12T01:09:08;14.60;99.90
9941;DHT22;5009;50.656;7.188;2022-09-12T01:11:35;14.60;99.90
9941;DHT22;5009;50.656;7.188;2022-09-12T01:14:01;14.50;99.90
9941;DHT22;5009;50.656;7.188;2022-09-12T01:16:27;14.50;99.90
9941;DHT22;5009;50.656;7.188;2022-09-12T01:27:45;14.50;99.90
9941;DHT22;5009;50.656;7.188;2022-09-12T01:33:21;14.40;99.90
9941;DHT22;5009;50.656;7.188;2022-09-12T01:36:21;14.30;99.90
9941;DHT22;5009;50.656;7.188;2022-09-12T01:39:00;14.20;99.90
9941;DHT22;5009;50.656;7.188;2022-09-12T01:44:18;14.20;99.90
9941;DHT22;5009;50.656;7.188;2022-09-12T01:52:49;14.20;99.90
9941;DHT22;5009;50.656;7.188;2022-09-12T01:55:25;14.10;99.90
9941;DHT22;5009;50.656;7.188;2022-09-12T01:58:14;14.10;99.90
9941;DHT22;5009;50.656;7.188;2022-09-12T02:03:32;14.10;99.90
9941;DHT22;5009;50.656;7.188;2022-09-12T02:06:09;14.20;99.90
9941;DHT22;5009;50.656;7.188;2022-09-12T02:08:47;14.10;99.90
9941;DHT22;5009;50.656;7.188;2022-09-12T02:11:13;14.10;99.90
9941;DHT22;5009;50.656;7.188;2022-09-12T02:13:42;14.10;99.90
9941;DHT22;5009;50.656;7.188;2022-09-12T02:16:12;14.10;99.90
9941;DHT22;5009;50.656;7.188;2022-09-12T02:18:44;14.10;99.90
9941;DHT22;5009;50.656;7.188;2022-09-12T02:21:11;14.10;99.90
9941;DHT22;5009;50.656;7.188;2022-09-12T02:23:40;14.10;99.90
9941;DHT22;5009;50.656;7.188;2022-09-12T02:26:12;14.10;99.90
9941;DHT22;5009;50.656;7.188;2022-09-12T02:28:41;14.10;99.90
9941;DHT22;5009;50.656;7.188;2022-09-12T02:34:34;14.00;99.90
9941;DHT22;5009;50.656;7.188;2022-09-12T02:39:21;14.00;99.90
9941;DHT22;5009;50.656;7.188;2022-09-12T02:41:49;13.90;99.90
9941;DHT22;5009;50.656;7.188;2022-09-12T02:44:16;13.90;99.90
9941;DHT22;5009;50.656;7.188;2022-09-12T02:46:51;13.90;99.90
9941;DHT22;5009;50.656;7.188;2022-09-12T02:49:18;13.80;99.90
9941;DHT22;5009;50.656;7.188;2022-09-12T02:51:45;13.80;99.90
9941;DHT22;5009;50.656;7.188;2022-09-12T02:54:12;13.90;99.90
9941;DHT22;5009;50.656;7.188;2022-09-12T02:56:41;13.80;99.90
9941;DHT22;5009;50.656;7.188;2022-09-12T02:59:09;13.80;99.90
9941;DHT22;5009;50.656;7.188;2022-09-12T03:13:32;13.80;99.90
9941;DHT22;5009;50.656;7.188;2022-09-12T03:16:09;13.80;99.90
9941;DHT22;5009;50.656;7.188;2022-09-12T03:19:01;13.80;99.90
9941;DHT22;5009;50.656;7.188;2022-09-12T03:24:08;13.70;99.90
9941;DHT22;5009;50.656;7.188;2022-09-12T03:26:43;13.70;99.90
9941;DHT22;5009;50.656;7.188;2022-09-12T03:29:10;13.70;99.90
9941;DHT22;5009;50.656;7.188;2022-09-12T03:31:36;13.70;99.90
9941;DHT22;5009;50.656;7.188;2022-09-12T03:34:01;13.70;99.90
9941;DHT22;5009;50.656;7.188;2022-09-12T03:36:28;13.70;99.90
9941;DHT22;5009;50.656;7.188;2022-09-12T03:38:54;13.70;99.90
9941;DHT22;5009;50.656;7.188;2022-09-12T03:41:20;13.70;99.90
9941;DHT22;5009;50.656;7.188;2022-09-12T03:43:46;13.70;99.90
9941;DHT22;5009;50.656;7.188;2022-09-12T03:46:12;13.60;99.90
9941;DHT22;5009;50.656;7.188;2022-09-12T03:48:39;13.60;99.90
9941;DHT22;5009;50.656;7.188;2022-09-12T03:51:07;13.70;99.90
9941;DHT22;5009;50.656;7.188;2022-09-12T03:53:33;13.70;99.90
9941;DHT22;5009;50.656;7.188;2022-09-12T03:56:00;13.60;99.90
9941;DHT22;5009;50.656;7.188;2022-09-12T03:58:29;13.60;99.90
9941;DHT22;5009;50.656;7.188;2022-09-12T04:00:55;13.50;99.90
9941;DHT22;5009;50.656;7.188;2022-09-12T04:03:21;13.50;99.90
9941;DHT22;5009;50.656;7.188;2022-09-12T04:05:47;13.50;99.90
9941;DHT22;5009;50.656;7.188;2022-09-12T04:08:13;13.50;99.90
9941;DHT22;5009;50.656;7.188;2022-09-12T04:10:38;13.40;99.90
9941;DHT22;5009;50.656;7.188;2022-09-12T04:13:04;13.50;99.90
9941;DHT22;5009;50.656;7.188;2022-09-12T04:15:30;13.50;99.90
9941;DHT22;5009;50.656;7.188;2022-09-12T04:17:55;13.50;99.90
9941;DHT22;5009;50.656;7.188;2022-09-12T04:20:21;13.50;99.90
9941;DHT22;5009;50.656;7.188;2022-09-12T04:22:46;13.50;99.90
9941;DHT22;5009;50.656;7.188;2022-09-12T04:25:12;13.40;99.90
9941;DHT22;5009;50.656;7.188;2022-09-12T04:27:38;13.50;99.90
9941;DHT22;5009;50.656;7.188;2022-09-12T04:30:05;13.50;99.90
9941;DHT22;5009;50.656;7.188;2022-09-12T04:32:30;13.50;99.90
9941;DHT22;5009;50.656;7.188;2022-09-12T04:34:57;13.50;99.90
9941;DHT22;5009;50.656;7.188;2022-09-12T04:37:22;13.50;99.90
9941;DHT22;5009;50.656;7.188;2022-09-12T04:39:49;13.50;99.90
9941;DHT22;5009;50.656;7.188;2022-09-12T04:42:16;13.50;99.90
9941;DHT22;5009;50.656;7.188;2022-09-12T04:44:42;13.50;99.90
9941;DHT22;5009;50.656;7.188;2022-09-12T04:47:07;13.50;99.90
9941;DHT22;5009;50.656;7.188;2022-09-12T04:49:33;13.60;99.90
9941;DHT22;5009;50.656;7.188;2022-09-12T04:51:59;13.50;99.90
9941;DHT22;5009;50.656;7.188;2022-09-12T04:54:25;13.50;99.90
9941;DHT22;5009;50.656;7.188;2022-09-12T04:56:50;13.50;99.90
9941;DHT22;5009;50.656;7.188;2022-09-12T04:59:18;13.60;99.90
9941;DHT22;5009;50.656;7.188;2022-09-12T05:01:44;13.50;99.90
9941;DHT22;5009;50.656;7.188;2022-09-12T05:04:11;13.60;99.90
9941;DHT22;5009;50.656;7.188;2022-09-12T05:06:38;13.60;99.90
9941;DHT22;5009;50.656;7.188;2022-09-12T05:09:06;13.60;99.90
9941;DHT22;5009;50.656;7.188;2022-09-12T05:11:34;13.50;99.90
9941;DHT22;5009;50.656;7.188;2022-09-12T05:14:00;13.50;99.90
9941;DHT22;5009;50.656;7.188;2022-09-12T05:16:27;13.50;99.90
9941;DHT22;5009;50.656;7.188;2022-09-12T05:18:54;13.60;99.90
9941;DHT22;5009;50.656;7.188;2022-09-12T05:21:20;13.60;99.90
9941;DHT22;5009;50.656;7.188;2022-09-12T05:23:53;13.60;99.90
9941;DHT22;5009;50.656;7.188;2022-09-12T05:26:20;13.60;99.90
9941;DHT22;5009;50.656;7.188;2022-09-12T05:28:48;13.70;99.90
9941;DHT22;5009;50.656;7.188;2022-09-12T05:31:22;13.70;99.90
9941;DHT22;5009;50.656;7.188;2022-09-12T05:33:50;13.70;99.90
9941;DHT22;5009;50.656;7.188;2022-09-12T05:36:36;13.80;99.90
9941;DHT22;5009;50.656;7.188;2022-09-12T05:39:03;13.80;99.90
9941;DHT22;5009;50.656;7.188;2022-09-12T05:41:30;13.80;99.90
9941;DHT22;5009;50.656;7.188;2022-09-12T05:44:00;13.80;99.90
9941;DHT22;5009;50.656;7.188;2022-09-12T05:46:29;13.80;99.90
9941;DHT22;5009;50.656;7.188;2022-09-12T05:48:55;13.80;99.90
9941;DHT22;5009;50.656;7.188;2022-09-12T05:51:26;13.90;99.90
9941;DHT22;5009;50.656;7.188;2022-09-12T05:53:57;14.00;99.90
9941;DHT22;5009;50.656;7.188;2022-09-12T05:56:25;14.10;99.90
9941;DHT22;5009;50.656;7.188;2022-09-12T05:58:57;14.20;99.90
9941;DHT22;5009;50.656;7.188;2022-09-12T06:01:24;14.20;99.90
9941;DHT22;5009;50.656;7.188;2022-09-12T06:03:52;14.30;99.90
9941;DHT22;5009;50.656;7.188;2022-09-12T06:06:21;14.50;99.90
9941;DHT22;5009;50.656;7.188;2022-09-12T06:08:50;14.60;99.90
9941;DHT22;5009;50.656;7.188;2022-09-12T06:11:21;14.80;99.90
9941;DHT22;5009;50.656;7.188;2022-09-12T06:13:48;15.10;99.90
9941;DHT22;5009;50.656;7.188;2022-09-12T06:16:17;15.40;99.90
9941;DHT22;5009;50.656;7.188;2022-09-12T06:18:47;15.60;99.90
9941;DHT22;5009;50.656;7.188;2022-09-12T06:21:13;15.70;99.90
9941;DHT22;5009;50.656;7.188;2022-09-12T06:23:39;15.70;99.90
9941;DHT22;5009;50.656;7.188;2022-09-12T06:26:07;15.90;99.90
9941;DHT22;5009;50.656;7.188;2022-09-12T06:28:37;16.00;99.90
9941;DHT22;5009;50.656;7.188;2022-09-12T06:31:12;15.90;99.90
9941;DHT22;5009;50.656;7.188;2022-09-12T06:33:41;16.00;99.90
9941;DHT22;5009;50.656;7.188;2022-09-12T06:36:21;15.90;99.90
9941;DHT22;5009;50.656;7.188;2022-09-12T06:38:47;15.90;99.90
9941;DHT22;5009;50.656;7.188;2022-09-12T06:41:13;16.20;99.90
9941;DHT22;5009;50.656;7.188;2022-09-12T06:43:40;16.50;99.90
9941;DHT22;5009;50.656;7.188;2022-09-12T06:46:06;16.80;99.90
9941;DHT22;5009;50.656;7.188;2022-09-12T06:48:32;17.20;99.90
9941;DHT22;5009;50.656;7.188;2022-09-12T06:51:02;17.80;99.90
9941;DHT22;5009;50.656;7.188;2022-09-12T06:53:29;18.30;99.90
9941;DHT22;5009;50.656;7.188;2022-09-12T06:56:05;18.80;99.90
9941;DHT22;5009;50.656;7.188;2022-09-12T06:58:32;19.20;99.90
9941;DHT22;5009;50.656;7.188;2022-09-12T07:01:27;19.70;99.90
9941;DHT22;5009;50.656;7.188;2022-09-12T07:04:04;19.80;99.90
9941;DHT22;5009;50.656;7.188;2022-09-12T07:06:35;20.20;99.90
9941;DHT22;5009;50.656;7.188;2022-09-12T07:09:02;20.50;99.90
9941;DHT22;5009;50.656;7.188;2022-09-12T07:11:33;20.80;99.90
9941;DHT22;5009;50.656;7.188;2022-09-12T07:14:01;21.20;99.90
9941;DHT22;5009;50.656;7.188;2022-09-12T07:16:27;21.10;99.90
9941;DHT22;5009;50.656;7.188;2022-09-12T07:18:56;21.40;99.90
9941;DHT22;5009;50.656;7.188;2022-09-12T07:21:22;21.90;99.90
9941;DHT22;5009;50.656;7.188;2022-09-12T07:23:48;22.20;99.90
9941;DHT22;5009;50.656;7.188;2022-09-12T07:26:16;22.50;99.90
9941;DHT22;5009;50.656;7.188;2022-09-12T07:28:42;22.70;99.90
9941;DHT22;5009;50.656;7.188;2022-09-12T07:31:16;22.40;99.90
9941;DHT22;5009;50.656;7.188;2022-09-12T07:33:42;22.10;99.90
9941;DHT22;5009;50.656;7.188;2022-09-12T07:36:11;22.20;99.90
9941;DHT22;5009;50.656;7.188;2022-09-12T07:38:38;22.10;99.90
9941;DHT22;5009;50.656;7.188;2022-09-12T07:41:11;21.90;99.90
9941;DHT22;5009;50.656;7.188;2022-09-12T07:43:37;22.10;99.90
9941;DHT22;5009;50.656;7.188;2022-09-12T07:46:03;22.10;99.90
9941;DHT22;5009;50.656;7.188;2022-09-12T07:48:28;21.70;99.90
9941;DHT22;5009;50.656;7.188;2022-09-12T07:51:01;22.10;99.90
9941;DHT22;5009;50.656;7.188;2022-09-12T07:53:33;21.90;99.90
9941;DHT22;5009;50.656;7.188;2022-09-12T07:55:59;22.20;99.90
9941;DHT22;5009;50.656;7.188;2022-09-12T07:58:25;22.60;99.90
9941;DHT22;5009;50.656;7.188;2022-09-12T08:00:51;22.70;99.90
9941;DHT22;5009;50.656;7.188;2022-09-12T08:03:17;23.20;99.90
9941;DHT22;5009;50.656;7.188;2022-09-12T08:05:42;23.90;98.60
9941;DHT22;5009;50.656;7.188;2022-09-12T08:08:08;24.70;97.60
9941;DHT22;5009;50.656;7.188;2022-09-12T08:10:34;25.10;94.60
9941;DHT22;5009;50.656;7.188;2022-09-12T08:12:59;25.90;92.20
9941;DHT22;5009;50.656;7.188;2022-09-12T08:15:25;26.60;90.00
9941;DHT22;5009;50.656;7.188;2022-09-12T08:17:50;27.90;85.70
9941;DHT22;5009;50.656;7.188;2022-09-12T08:20:16;28.30;77.60
9941;DHT22;5009;50.656;7.188;2022-09-12T08:22:42;28.40;75.30
9941;DHT22;5009;50.656;7.188;2022-09-12T08:25:08;29.10;71.40
9941;DHT22;5009;50.656;7.188;2022-09-12T08:27:34;29.30;68.70
9941;DHT22;5009;50.656;7.188;2022-09-12T08:30:00;29.70;65.40
9941;DHT22;5009;50.656;7.188;2022-09-12T08:32:25;29.10;64.50
9941;DHT22;5009;50.656;7.188;2022-09-12T08:34:51;27.70;68.50
9941;DHT22;5009;50.656;7.188;2022-09-12T08:37:17;27.10;74.30
9941;DHT22;5009;50.656;7.188;2022-09-12T08:39:42;26.80;76.10
9941;DHT22;5009;50.656;7.188;2022-09-12T08:42:09;25.90;79.40
9941;DHT22;5009;50.656;7.188;2022-09-12T08:44:47;25.70;82.90
9941;DHT22;5009;50.656;7.188;2022-09-12T08:47:29;24.90;86.20
9941;DHT22;5009;50.656;7.188;2022-09-12T08:52:58;25.30;89.10
9941;DHT22;5009;50.656;7.188;2022-09-12T08:58:00;24.80;91.00
9941;DHT22;5009;50.656;7.188;2022-09-12T09:06:50;24.80;91.20
9941;DHT22;5009;50.656;7.188;2022-09-12T09:09:26;24.70;90.80
9941;DHT22;5009;50.656;7.188;2022-09-12T09:12:21;24.40;91.00
9941;DHT22;5009;50.656;7.188;2022-09-12T09:18:05;24.30;90.90
9941;DHT22;5009;50.656;7.188;2022-09-12T09:20:50;23.90;91.70
9941;DHT22;5009;50.656;7.188;2022-09-12T09:23:24;23.70;92.50
9941;DHT22;5009;50.656;7.188;2022-09-12T09:26:12;23.70;92.80
9941;DHT22;5009;50.656;7.188;2022-09-12T09:28:48;23.90;92.70
9941;DHT22;5009;50.656;7.188;2022-09-12T09:31:21;24.00;92.70
9941;DHT22;5009;50.656;7.188;2022-09-12T09:33:49;24.00;92.80
9941;DHT22;5009;50.656;7.188;2022-09-12T09:36:43;24.00;92.30
9941;DHT22;5009;50.656;7.188;2022-09-12T09:39:41;24.00;93.10
9941;DHT22;5009;50.656;7.188;2022-09-12T09:42:59;24.10;92.20
9941;DHT22;5009;50.656;7.188;2022-09-12T09:45:19;23.90;91.70
9941;DHT22;5009;50.656;7.188;2022-09-12T09:47:56;23.90;92.50
9941;DHT22;5009;50.656;7.188;2022-09-12T09:50:23;23.80;92.80
9941;DHT22;5009;50.656;7.188;2022-09-12T09:52:50;23.90;93.70
9941;DHT22;5009;50.656;7.188;2022-09-12T09:55:21;23.70;92.60
9941;DHT22;5009;50.656;7.188;2022-09-12T09:57:47;23.50;92.90
9941;DHT22;5009;50.656;7.188;2022-09-12T10:00:31;23.50;93.00
9941;DHT22;5009;50.656;7.188;2022-09-12T10:06:00;23.30;92.70
9941;DHT22;5009;50.656;7.188;2022-09-12T10:08:28;23.30;92.20
9941;DHT22;5009;50.656;7.188;2022-09-12T10:13:40;23.00;93.10
9941;DHT22;5009;50.656;7.188;2022-09-12T10:16:30;23.10;92.50
9941;DHT22;5009;50.656;7.188;2022-09-12T10:18:58;22.90;92.50
9941;DHT22;5009;50.656;7.188;2022-09-12T10:21:35;22.80;92.20
9941;DHT22;5009;50.656;7.188;2022-09-12T10:26:38;22.70;91.60
9941;DHT22;5009;50.656;7.188;2022-09-12T10:29:32;22.60;92.60
9941;DHT22;5009;50.656;7.188;2022-09-12T10:31:58;22.60;91.80
9941;DHT22;5009;50.656;7.188;2022-09-12T10:34:26;22.60;92.00
9941;DHT22;5009;50.656;7.188;2022-09-12T10:36:59;22.50;93.10
9941;DHT22;5009;50.656;7.188;2022-09-12T10:39:26;22.60;93.40
9941;DHT22;5009;50.656;7.188;2022-09-12T10:41:52;22.60;93.50
9941;DHT22;5009;50.656;7.188;2022-09-12T10:44:24;22.60;92.70
9941;DHT22;5009;50.656;7.188;2022-09-12T10:46:53;22.60;93.60
9941;DHT22;5009;50.656;7.188;2022-09-12T10:49:21;22.50;92.40
9941;DHT22;5009;50.656;7.188;2022-09-12T10:51:50;22.50;92.90
9941;DHT22;5009;50.656;7.188;2022-09-12T10:54:18;22.50;92.60
9941;DHT22;5009;50.656;7.188;2022-09-12T11:00:18;22.70;93.80
9941;DHT22;5009;50.656;7.188;2022-09-12T11:07:59;22.70;93.20
9941;DHT22;5009;50.656;7.188;2022-09-12T11:13:51;22.70;91.80
9941;DHT22;5009;50.656;7.188;2022-09-12T11:24:39;22.70;91.30
9941;DHT22;5009;50.656;7.188;2022-09-12T11:35:24;22.70;90.20
9941;DHT22;5009;50.656;7.188;2022-09-12T11:40:54;22.80;90.50
9941;DHT22;5009;50.656;7.188;2022-09-12T11:46:20;22.80;87.70
9941;DHT22;5009;50.656;7.188;2022-09-12T11:49:12;22.90;88.70
9941;DHT22;5009;50.656;7.188;2022-09-12T11:51:49;22.80;88.20
9941;DHT22;5009;50.656;7.188;2022-09-12T11:57:30;22.70;89.00
9941;DHT22;5009;50.656;7.188;2022-09-12T12:00:15;22.70;90.90
9941;DHT22;5009;50.656;7.188;2022-09-12T12:05:52;22.60;90.20
9941;DHT22;5009;50.656;7.188;2022-09-12T12:08:20;22.60;90.10
9941;DHT22;5009;50.656;7.188;2022-09-12T12:11:00;22.60;89.60
9941;DHT22;5009;50.656;7.188;2022-09-12T12:13:43;22.60;88.90
9941;DHT22;5009;50.656;7.188;2022-09-12T12:16:19;22.70;89.00
9941;DHT22;5009;50.656;7.188;2022-09-12T12:18:53;22.60;89.00
9941;DHT22;5009;50.656;7.188;2022-09-12T12:21:44;22.60;88.20
9941;DHT22;5009;50.656;7.188;2022-09-12T12:34:43;22.70;90.50
9941;DHT22;5009;50.656;7.188;2022-09-12T12:44:57;22.90;91.10
9941;DHT22;5009;50.656;7.188;2022-09-12T12:47:26;22.90;90.20
9941;DHT22;5009;50.656;7.188;2022-09-12T12:49:58;23.00;91.00
9941;DHT22;5009;50.656;7.188;2022-09-12T12:52:27;23.00;90.20
9941;DHT22;5009;50.656;7.188;2022-09-12T12:54:57;23.00;89.50
9941;DHT22;5009;50.656;7.188;2022-09-12T12:57:39;23.10;89.70
9941;DHT22;5009;50.656;7.188;2022-09-12T13:00:23;23.10;89.10
9941;DHT22;5009;50.656;7.188;2022-09-12T13:03:17;23.10;89.20
9941;DHT22;5009;50.656;7.188;2022-09-12T13:05:48;23.20;90.50
9941;DHT22;5009;50.656;7.188;2022-09-12T13:11:34;23.20;88.60
9941;DHT22;5009;50.656;7.188;2022-09-12T13:13:49;23.20;87.80
9941;DHT22;5009;50.656;7.188;2022-09-12T13:16:37;23.30;86.10
9941;DHT22;5009;50.656;7.188;2022-09-12T13:19:07;23.30;86.70
9941;DHT22;5009;50.656;7.188;2022-09-12T13:21:36;23.30;86.50
9941;DHT22;5009;50.656;7.188;2022-09-12T13:24:10;23.30;85.60
9941;DHT22;5009;50.656;7.188;2022-09-12T13:26:42;23.30;86.50
9941;DHT22;5009;50.656;7.188;2022-09-12T13:29:20;23.30;87.20
9941;DHT22;5009;50.656;7.188;2022-09-12T13:31:48;23.30;87.80
9941;DHT22;5009;50.656;7.188;2022-09-12T13:35:03;23.30;86.60
9941;DHT22;5009;50.656;7.188;2022-09-12T13:37:31;23.40;87.10
9941;DHT22;5009;50.656;7.188;2022-09-12T13:40:28;23.40;86.80
9941;DHT22;5009;50.656;7.188;2022-09-12T13:43:13;23.40;87.20
9941;DHT22;5009;50.656;7.188;2022-09-12T13:45:40;23.40;87.10
9941;DHT22;5009;50.656;7.188;2022-09-12T13:48:15;23.50;85.50
9941;DHT22;5009;50.656;7.188;2022-09-12T13:50:56;23.50;86.30
9941;DHT22;5009;50.656;7.188;2022-09-12T13:53:24;23.50;86.20
9941;DHT22;5009;50.656;7.188;2022-09-12T13:55:54;23.50;84.80
9941;DHT22;5009;50.656;7.188;2022-09-12T13:58:28;23.50;84.40
9941;DHT22;5009;50.656;7.188;2022-09-12T14:03:41;23.50;84.50
9941;DHT22;5009;50.656;7.188;2022-09-12T14:06:26;23.60;84.00
9941;DHT22;5009;50.656;7.188;2022-09-12T14:08:52;23.60;83.60
9941;DHT22;5009;50.656;7.188;2022-09-12T14:11:26;23.60;82.20
9941;DHT22;5009;50.656;7.188;2022-09-12T14:13:53;23.60;82.10
9941;DHT22;5009;50.656;7.188;2022-09-12T14:16:20;23.60;83.00
9941;DHT22;5009;50.656;7.188;2022-09-12T14:18:48;23.70;82.20
9941;DHT22;5009;50.656;7.188;2022-09-12T14:21:34;23.70;81.90
9941;DHT22;5009;50.656;7.188;2022-09-12T14:24:02;23.80;81.70
9941;DHT22;5009;50.656;7.188;2022-09-12T14:26:32;23.80;81.20
9941;DHT22;5009;50.656;7.188;2022-09-12T14:29:01;23.80;80.00
9941;DHT22;5009;50.656;7.188;2022-09-12T14:31:31;23.80;80.30
9941;DHT22;5009;50.656;7.188;2022-09-12T14:36:49;23.80;78.40
9941;DHT22;5009;50.656;7.188;2022-09-12T14:41:40;23.80;77.30
9941;DHT22;5009;50.656;7.188;2022-09-12T14:44:17;23.90;76.30
9941;DHT22;5009;50.656;7.188;2022-09-12T14:46:46;23.90;76.50
9941;DHT22;5009;50.656;7.188;2022-09-12T14:49:20;23.90;74.50
9941;DHT22;5009;50.656;7.188;2022-09-12T14:51:51;23.90;73.40
9941;DHT22;5009;50.656;7.188;2022-09-12T14:54:54;23.90;73.80
9941;DHT22;5009;50.656;7.188;2022-09-12T14:57:30;24.00;74.00
9941;DHT22;5009;50.656;7.188;2022-09-12T15:02:48;24.00;72.80
9941;DHT22;5009;50.656;7.188;2022-09-12T15:05:18;24.00;72.60
9941;DHT22;5009;50.656;7.188;2022-09-12T15:07:54;24.00;71.50
9941;DHT22;5009;50.656;7.188;2022-09-12T15:10:28;24.00;70.00
9941;DHT22;5009;50.656;7.188;2022-09-12T15:15:37;24.10;69.40
9941;DHT22;5009;50.656;7.188;2022-09-12T15:18:03;24.10;67.30
9941;DHT22;5009;50.656;7.188;2022-09-12T15:20:30;24.10;67.20
9941;DHT22;5009;50.656;7.188;2022-09-12T15:22:56;24.10;67.20
9941;DHT22;5009;50.656;7.188;2022-09-12T15:25:21;24.10;65.20
9941;DHT22;5009;50.656;7.188;2022-09-12T15:27:49;24.10;64.50
9941;DHT22;5009;50.656;7.188;2022-09-12T15:30:14;24.10;65.60
9941;DHT22;5009;50.656;7.188;2022-09-12T15:32:42;24.10;65.80
9941;DHT22;5009;50.656;7.188;2022-09-12T15:35:16;24.10;64.70
9941;DHT22;5009;50.656;7.188;2022-09-12T15:37:42;24.10;64.40
9941;DHT22;5009;50.656;7.188;2022-09-12T15:40:09;24.10;64.00
9941;DHT22;5009;50.656;7.188;2022-09-12T15:42:35;24.10;63.40
9941;DHT22;5009;50.656;7.188;2022-09-12T15:45:01;24.10;63.00
9941;DHT22;5009;50.656;7.188;2022-09-12T15:47:29;24.10;63.00
9941;DHT22;5009;50.656;7.188;2022-09-12T15:49:54;24.10;63.10
9941;DHT22;5009;50.656;7.188;2022-09-12T15:52:20;24.10;63.10
9941;DHT22;5009;50.656;7.188;2022-09-12T15:54:46;24.10;62.80
9941;DHT22;5009;50.656;7.188;2022-09-12T15:57:11;24.10;62.50
9941;DHT22;5009;50.656;7.188;2022-09-12T15:59:37;24.10;62.30
9941;DHT22;5009;50.656;7.188;2022-09-12T16:02:03;24.10;61.70
9941;DHT22;5009;50.656;7.188;2022-09-12T16:04:29;24.10;61.70
9941;DHT22;5009;50.656;7.188;2022-09-12T16:06:55;24.10;61.80
9941;DHT22;5009;50.656;7.188;2022-09-12T16:09:22;24.10;62.30
9941;DHT22;5009;50.656;7.188;2022-09-12T16:11:48;24.10;62.00
9941;DHT22;5009;50.656;7.188;2022-09-12T16:14:18;24.10;62.40
9941;DHT22;5009;50.656;7.188;2022-09-12T16:16:47;24.10;62.20
9941;DHT22;5009;50.656;7.188;2022-09-12T16:19:15;24.10;61.90
9941;DHT22;5009;50.656;7.188;2022-09-12T16:21:41;24.00;61.00
9941;DHT22;5009;50.656;7.188;2022-09-12T16:24:06;24.00;61.30
9941;DHT22;5009;50.656;7.188;2022-09-12T16:26:32;24.00;61.40
9941;DHT22;5009;50.656;7.188;2022-09-12T16:28:58;24.00;60.90
9941;DHT22;5009;50.656;7.188;2022-09-12T16:31:25;24.00;60.20
9941;DHT22;5009;50.656;7.188;2022-09-12T16:33:52;24.00;60.30
9941;DHT22;5009;50.656;7.188;2022-09-12T16:36:19;24.00;61.00
9941;DHT22;5009;50.656;7.188;2022-09-12T16:38:48;24.00;60.80
9941;DHT22;5009;50.656;7.188;2022-09-12T16:41:14;24.00;60.50
9941;DHT22;5009;50.656;7.188;2022-09-12T16:43:41;24.00;60.70
9941;DHT22;5009;50.656;7.188;2022-09-12T16:46:10;24.00;61.00
9941;DHT22;5009;50.656;7.188;2022-09-12T16:48:42;24.00;61.40
9941;DHT22;5009;50.656;7.188;2022-09-12T16:51:09;24.00;62.00
9941;DHT22;5009;50.656;7.188;2022-09-12T16:53:37;23.90;61.60
9941;DHT22;5009;50.656;7.188;2022-09-12T16:56:04;23.90;62.10
9941;DHT22;5009;50.656;7.188;2022-09-12T16:58:36;23.90;62.50
9941;DHT22;5009;50.656;7.188;2022-09-12T17:01:22;23.90;62.60
9941;DHT22;5009;50.656;7.188;2022-09-12T17:03:57;23.90;62.80
9941;DHT22;5009;50.656;7.188;2022-09-12T17:06:23;23.90;63.30
9941;DHT22;5009;50.656;7.188;2022-09-12T17:08:51;23.80;63.30
9941;DHT22;5009;50.656;7.188;2022-09-12T17:11:20;23.80;62.80
9941;DHT22;5009;50.656;7.188;2022-09-12T17:13:48;23.80;62.70
9941;DHT22;5009;50.656;7.188;2022-09-12T17:16:14;23.80;62.80
9941;DHT22;5009;50.656;7.188;2022-09-12T17:18:40;23.80;62.30
9941;DHT22;5009;50.656;7.188;2022-09-12T17:21:07;23.70;62.10
9941;DHT22;5009;50.656;7.188;2022-09-12T17:23:32;23.70;62.40
9941;DHT22;5009;50.656;7.188;2022-09-12T17:25:58;23.70;63.00
9941;DHT22;5009;50.656;7.188;2022-09-12T17:28:24;23.60;63.20
9941;DHT22;5009;50.656;7.188;2022-09-12T17:31:00;23.60;63.20
9941;DHT22;5009;50.656;7.188;2022-09-12T17:33:26;23.60;62.90
9941;DHT22;5009;50.656;7.188;2022-09-12T17:35:52;23.60;63.40
9941;DHT22;5009;50.656;7.188;2022-09-12T17:38:19;23.50;63.40
9941;DHT22;5009;50.656;7.188;2022-09-12T17:40:45;23.50;63.60
9941;DHT22;5009;50.656;7.188;2022-09-12T17:43:14;23.50;63.80
9941;DHT22;5009;50.656;7.188;2022-09-12T17:45:40;23.50;64.50
9941;DHT22;5009;50.656;7.188;2022-09-12T17:48:06;23.40;64.10
9941;DHT22;5009;50.656;7.188;2022-09-12T17:50:36;23.40;64.30
9941;DHT22;5009;50.656;7.188;2022-09-12T17:53:02;23.30;64.70
9941;DHT22;5009;50.656;7.188;2022-09-12T17:55:27;23.30;64.80
9941;DHT22;5009;50.656;7.188;2022-09-12T17:57:58;23.30;65.20
9941;DHT22;5009;50.656;7.188;2022-09-12T18:00:25;23.20;65.00
9941;DHT22;5009;50.656;7.188;2022-09-12T18:03:11;23.20;65.60
9941;DHT22;5009;50.656;7.188;2022-09-12T18:05:47;23.20;67.30
9941;DHT22;5009;50.656;7.188;2022-09-12T18:08:13;23.10;68.50
9941;DHT22;5009;50.656;7.188;2022-09-12T18:10:39;23.00;69.10
9941;DHT22;5009;50.656;7.188;2022-09-12T18:13:05;23.00;70.10
9941;DHT22;5009;50.656;7.188;2022-09-12T18:15:32;22.90;70.50
9941;DHT22;5009;50.656;7.188;2022-09-12T18:17:59;22.90;71.50
9941;DHT22;5009;50.656;7.188;2022-09-12T18:20:25;22.80;71.40
9941;DHT22;5009;50.656;7.188;2022-09-12T18:22:50;22.80;72.90
9941;DHT22;5009;50.656;7.188;2022-09-12T18:25:20;22.70;74.00
9941;DHT22;5009;50.656;7.188;2022-09-12T18:27:46;22.60;75.00
9941;DHT22;5009;50.656;7.188;2022-09-12T18:30:12;22.60;75.80
9941;DHT22;5009;50.656;7.188;2022-09-12T18:32:38;22.50;76.40
9941;DHT22;5009;50.656;7.188;2022-09-12T18:35:05;22.40;76.00
9941;DHT22;5009;50.656;7.188;2022-09-12T18:37:31;22.20;76.30
9941;DHT22;5009;50.656;7.188;2022-09-12T18:39:57;22.20;77.10
9941;DHT22;5009;50.656;7.188;2022-09-12T18:42:27;22.20;77.70
9941;DHT22;5009;50.656;7.188;2022-09-12T18:44:53;22.10;78.90
9941;DHT22;5009;50.656;7.188;2022-09-12T18:47:18;22.10;80.00
9941;DHT22;5009;50.656;7.188;2022-09-12T18:49:44;22.00;81.40